createdAt,value
2018-04-22T00:01:37.357Z,99.90
2018-04-22T00:04:05.117Z,99.90
2018-04-22T00:06:32.877Z,99.90
2018-04-22T00:09:00.641Z,99.90
2018-04-22T00:11:28.193Z,99.90
2018-04-22T00:13:55.664Z,99.90
2018-04-22T00:16:23.432Z,99.90
2018-04-22T00:18:51.195Z,99.90
2018-04-22T00:21:19.365Z,99.90
2018-04-22T00:23:46.928Z,99.90
2018-04-22T00:26:14.589Z,99.90
2018-04-22T00:28:42.355Z,99.90
2018-04-22T00:31:10.329Z,99.90
2018-04-22T00:33:38.712Z,99.90
2018-04-22T00:36:06.580Z,99.90
2018-04-22T00:38:34.344Z,99.90
2018-04-22T00:41:02.108Z,99.90
2018-04-22T00:43:30.092Z,99.90
2018-04-22T00:45:58.324Z,99.90
2018-04-22T00:48:26.013Z,99.90
2018-04-22T00:50:53.497Z,99.90
2018-04-22T00:53:22.068Z,99.90
2018-04-22T00:55:49.833Z,99.90
2018-04-22T00:58:17.492Z,99.90
2018-04-22T01:00:45.873Z,99.90
2018-04-22T01:03:13.644Z,99.90
2018-04-22T01:05:42.121Z,99.90
2018-04-22T01:08:09.886Z,99.90
2018-04-22T01:10:37.648Z,99.90
2018-04-22T01:13:05.924Z,99.90
2018-04-22T01:15:34.160Z,99.90
2018-04-22T01:18:01.780Z,99.90
2018-04-22T01:20:30.761Z,99.90
2018-04-22T01:22:58.524Z,99.90
2018-04-22T01:25:26.291Z,99.90
2018-04-22T01:27:55.591Z,99.90
2018-04-22T01:30:23.876Z,99.90
2018-04-22T01:32:51.984Z,99.90
2018-04-22T01:35:19.717Z,99.90
2018-04-22T01:37:47.473Z,99.90
2018-04-22T01:40:15.096Z,99.90
2018-04-22T01:42:42.699Z,99.90
2018-04-22T01:45:10.364Z,99.90
2018-04-22T01:47:38.340Z,99.90
2018-04-22T01:50:05.996Z,99.90
2018-04-22T01:52:33.472Z,99.90
2018-04-22T01:55:01.945Z,99.90
2018-04-22T01:57:29.602Z,99.90
2018-04-22T01:59:57.369Z,99.90
2018-04-22T02:02:24.848Z,99.90
2018-04-22T02:04:53.815Z,99.90
2018-04-22T02:07:21.385Z,99.90
2018-04-22T02:09:49.709Z,99.90
2018-04-22T02:12:17.520Z,99.90
2018-04-22T02:14:45.005Z,99.90
2018-04-22T02:17:13.369Z,99.90
2018-04-22T02:19:41.129Z,99.90
2018-04-22T02:22:09.103Z,99.90
2018-04-22T02:24:36.966Z,99.90
2018-04-22T02:27:04.729Z,99.90
2018-04-22T02:29:32.392Z,99.90
2018-04-22T02:32:00.056Z,99.90
2018-04-22T02:34:27.778Z,99.90
2018-04-22T02:36:56.104Z,99.90
2018-04-22T02:39:23.664Z,99.90
2018-04-22T02:41:51.249Z,99.90
2018-04-22T02:44:18.989Z,99.90
2018-04-22T02:46:46.657Z,99.90
2018-04-22T02:49:15.029Z,99.90
2018-04-22T02:51:42.900Z,99.90
2018-04-22T02:54:10.480Z,99.90
2018-04-22T02:56:39.040Z,99.90
2018-04-22T02:59:06.704Z,99.90
2018-04-22T03:01:34.469Z,99.90
2018-04-22T03:04:02.343Z,99.90
2018-04-22T03:06:31.537Z,99.90
2018-04-22T03:08:59.297Z,99.90
2018-04-22T03:11:27.069Z,99.90
2018-04-22T03:13:55.136Z,99.90
2018-04-22T03:16:22.804Z,99.90
2018-04-22T03:18:50.567Z,99.90
2018-04-22T03:21:18.438Z,99.90
2018-04-22T03:23:46.016Z,99.90
2018-04-22T03:26:14.480Z,99.90
2018-04-22T03:28:42.448Z,99.90
2018-04-22T03:31:10.240Z,99.90
2018-04-22T03:33:38.796Z,99.90
2018-04-22T03:36:06.460Z,99.90
2018-04-22T03:38:34.332Z,99.90
2018-04-22T03:41:02.205Z,99.90
2018-04-22T03:43:30.472Z,99.90
2018-04-22T03:45:58.236Z,99.90
2018-04-22T03:48:26.192Z,99.90
2018-04-22T03:50:53.808Z,99.90
2018-04-22T03:53:21.436Z,99.90
2018-04-22T03:55:50.129Z,99.90
2018-04-22T03:58:18.700Z,99.90
2018-04-22T04:00:46.268Z,99.90
2018-04-22T04:03:13.824Z,99.90
2018-04-22T04:05:41.903Z,99.90
2018-04-22T04:08:10.176Z,99.90
2018-04-22T04:10:37.944Z,99.90
2018-04-22T04:13:05.713Z,99.90
2018-04-22T04:15:33.473Z,99.90
2018-04-22T04:21:28.403Z,99.90
2018-04-22T04:27:23.931Z,99.90
2018-04-22T04:29:51.668Z,99.90
2018-04-22T04:32:19.356Z,99.90
2018-04-22T04:34:47.222Z,99.90
2018-04-22T04:37:15.512Z,99.90
2018-04-22T04:39:43.747Z,99.90
2018-04-22T04:42:11.439Z,99.90
2018-04-22T04:44:38.909Z,99.90
2018-04-22T04:47:07.144Z,99.90
2018-04-22T04:49:34.691Z,99.90
2018-04-22T04:52:02.297Z,99.90
2018-04-22T04:54:29.771Z,99.90
2018-04-22T04:56:58.037Z,99.90
2018-04-22T04:59:25.906Z,99.90
2018-04-22T05:01:53.380Z,99.90
2018-04-22T05:04:21.615Z,99.90
2018-04-22T05:06:49.112Z,99.90
2018-04-22T05:09:18.180Z,99.90
2018-04-22T05:11:45.652Z,99.90
2018-04-22T05:14:13.231Z,99.90
2018-04-22T05:16:41.896Z,99.90
2018-04-22T05:19:09.474Z,99.90
2018-04-22T05:21:37.736Z,99.90
2018-04-22T05:24:05.348Z,99.90
2018-04-22T05:26:32.819Z,99.90
2018-04-22T05:29:00.517Z,99.90
2018-04-22T05:31:28.279Z,99.90
2018-04-22T05:33:56.056Z,99.90
2018-04-22T05:36:24.965Z,99.90
2018-04-22T05:38:52.600Z,99.90
2018-04-22T05:41:20.504Z,99.90
2018-04-22T05:43:47.977Z,99.90
2018-04-22T05:46:15.486Z,99.90
2018-04-22T05:48:43.148Z,99.90
2018-04-22T05:51:10.580Z,99.90
2018-04-22T05:53:38.365Z,99.90
2018-04-22T05:56:05.854Z,99.90
2018-04-22T05:58:33.336Z,99.90
2018-04-22T06:01:00.956Z,99.90
2018-04-22T06:03:29.222Z,99.90
2018-04-22T06:05:56.692Z,99.90
2018-04-22T06:08:24.984Z,99.90
2018-04-22T06:10:53.900Z,99.90
2018-04-22T06:13:21.368Z,99.90
2018-04-22T06:15:49.292Z,99.90
2018-04-22T06:18:17.652Z,99.90
2018-04-22T06:20:45.416Z,99.90
2018-04-22T06:23:14.671Z,99.90
2018-04-22T06:25:42.173Z,99.90
2018-04-22T06:28:11.152Z,99.90
2018-04-22T06:30:38.733Z,99.90
2018-04-22T06:33:06.796Z,99.90
2018-04-22T06:35:34.564Z,99.90
2018-04-22T06:38:02.332Z,99.90
2018-04-22T06:40:30.848Z,99.90
2018-04-22T06:42:59.491Z,99.90
2018-04-22T06:45:27.062Z,99.90
2018-04-22T06:47:54.825Z,99.90
2018-04-22T06:50:23.101Z,99.90
2018-04-22T06:52:50.604Z,99.90
2018-04-22T06:55:18.078Z,99.90
2018-04-22T06:57:45.776Z,99.90
2018-04-22T07:00:13.545Z,99.90
2018-04-22T07:02:41.125Z,99.90
2018-04-22T07:05:09.588Z,99.90
2018-04-22T07:07:38.072Z,99.90
2018-04-22T07:10:06.957Z,99.90
2018-04-22T07:12:36.043Z,99.90
2018-04-22T07:15:03.518Z,99.90
2018-04-22T07:17:32.092Z,99.90
2018-04-22T07:19:59.857Z,99.90
2018-04-22T07:22:27.832Z,99.50
2018-04-22T07:24:56.316Z,98.60
2018-04-22T07:27:24.551Z,97.80
2018-04-22T07:29:52.185Z,97.80
2018-04-22T07:32:19.668Z,97.10
2018-04-22T07:34:47.147Z,96.60
2018-04-22T07:37:15.855Z,95.90
2018-04-22T07:39:44.127Z,96.00
2018-04-22T07:42:11.689Z,95.90
2018-04-22T07:44:40.013Z,94.60
2018-04-22T07:47:07.693Z,94.20
2018-04-22T07:49:35.186Z,94.70
2018-04-22T07:52:03.968Z,93.70
2018-04-22T07:54:31.437Z,93.40
2018-04-22T07:56:59.672Z,92.90
2018-04-22T07:59:27.984Z,93.20
2018-04-22T08:01:56.221Z,92.40
2018-04-22T08:04:23.696Z,92.40
2018-04-22T08:06:51.481Z,91.80
2018-04-22T08:09:19.860Z,92.00
2018-04-22T08:11:47.624Z,92.00
2018-04-22T08:14:15.596Z,90.90
2018-04-22T08:16:43.837Z,90.00
2018-04-22T08:19:11.307Z,89.20
2018-04-22T08:21:39.088Z,89.10
2018-04-22T08:24:06.659Z,88.60
2018-04-22T08:26:35.548Z,83.60
2018-04-22T08:29:03.821Z,83.10
2018-04-22T08:31:31.589Z,83.10
2018-04-22T08:34:00.273Z,80.80
2018-04-22T08:36:28.547Z,80.40
2018-04-22T08:38:56.018Z,79.90
2018-04-22T08:41:24.385Z,79.10
2018-04-22T08:43:52.143Z,79.00
2018-04-22T08:46:19.810Z,79.60
2018-04-22T08:48:47.511Z,79.60
2018-04-22T08:51:15.336Z,80.00
2018-04-22T08:53:43.104Z,80.40
2018-04-22T08:56:11.509Z,77.30
2018-04-22T08:58:39.125Z,77.50
2018-04-22T09:01:06.703Z,79.30
2018-04-22T09:03:34.358Z,76.90
2018-04-22T09:06:01.923Z,77.10
2018-04-22T09:08:29.451Z,80.60
2018-04-22T09:10:57.220Z,77.50
2018-04-22T09:13:24.810Z,76.60
2018-04-22T09:15:53.541Z,79.00
2018-04-22T09:18:21.048Z,78.60
2018-04-22T09:20:48.567Z,76.90
2018-04-22T09:23:16.081Z,78.90
2018-04-22T09:25:44.444Z,75.20
2018-04-22T09:28:12.519Z,75.10
2018-04-22T09:30:40.891Z,75.60
2018-04-22T09:33:08.495Z,75.20
2018-04-22T09:35:36.015Z,74.60
2018-04-22T09:38:04.294Z,77.10
2018-04-22T09:40:31.848Z,77.10
2018-04-22T09:42:59.322Z,76.40
2018-04-22T09:45:27.993Z,77.00
2018-04-22T09:47:55.756Z,77.00
2018-04-22T09:50:23.622Z,74.40
2018-04-22T09:52:51.388Z,72.50
2018-04-22T09:55:19.154Z,72.10
2018-04-22T09:57:47.515Z,71.80
2018-04-22T10:00:20.667Z,71.20
2018-04-22T10:02:48.237Z,69.70
2018-04-22T10:05:15.712Z,71.90
2018-04-22T10:07:43.292Z,68.40
2018-04-22T10:10:10.861Z,66.50
2018-04-22T10:12:39.533Z,67.30
2018-04-22T10:15:07.135Z,67.10
2018-04-22T10:17:34.930Z,67.30
2018-04-22T10:20:02.432Z,64.90
2018-04-22T10:22:29.973Z,65.00
2018-04-22T10:24:57.440Z,63.60
2018-04-22T10:27:24.905Z,62.50
2018-04-22T10:29:52.673Z,60.10
2018-04-22T10:32:20.940Z,59.60
2018-04-22T10:34:48.596Z,59.50
2018-04-22T10:37:16.569Z,58.20
2018-04-22T10:39:44.116Z,57.80
2018-04-22T10:42:11.575Z,57.10
2018-04-22T10:44:39.114Z,57.70
2018-04-22T10:47:06.576Z,56.80
2018-04-22T10:49:34.068Z,53.80
2018-04-22T10:52:01.925Z,53.40
2018-04-22T10:54:29.692Z,48.90
2018-04-22T10:56:57.252Z,44.90
2018-04-22T10:59:24.812Z,47.00
2018-04-22T11:01:52.324Z,44.50
2018-04-22T11:04:19.796Z,45.20
2018-04-22T11:06:48.112Z,44.00
2018-04-22T11:09:15.971Z,44.00
2018-04-22T11:11:43.862Z,44.70
2018-04-22T11:14:12.116Z,40.40
2018-04-22T11:16:39.639Z,40.90
2018-04-22T11:19:07.944Z,41.90
2018-04-22T11:21:35.511Z,40.00
2018-04-22T11:24:03.173Z,40.40
2018-04-22T11:26:30.828Z,39.90
2018-04-22T11:28:58.700Z,38.30
2018-04-22T11:31:26.464Z,37.10
2018-04-22T11:33:54.429Z,39.70
2018-04-22T11:36:22.213Z,37.60
2018-04-22T11:38:50.481Z,37.20
2018-04-22T11:41:19.360Z,34.10
2018-04-22T11:43:46.827Z,33.50
2018-04-22T11:46:14.288Z,33.00
2018-04-22T11:48:41.840Z,35.70
2018-04-22T11:51:09.324Z,31.30
2018-04-22T11:53:37.809Z,34.70
2018-04-22T11:56:06.164Z,33.90
2018-04-22T11:58:33.733Z,33.80
2018-04-22T12:01:01.964Z,33.20
2018-04-22T12:03:29.868Z,33.10
2018-04-22T12:05:57.323Z,31.60
2018-04-22T12:08:25.605Z,33.50
2018-04-22T12:10:54.085Z,35.00
2018-04-22T12:13:21.640Z,35.00
2018-04-22T12:15:49.192Z,31.30
2018-04-22T12:18:17.164Z,33.70
2018-04-22T12:20:44.735Z,33.20
2018-04-22T12:23:12.964Z,32.30
2018-04-22T12:25:40.468Z,32.10
2018-04-22T12:28:08.700Z,31.60
2018-04-22T12:30:36.173Z,31.70
2018-04-22T12:33:03.852Z,31.30
2018-04-22T12:35:31.316Z,30.60
2018-04-22T12:37:59.553Z,31.40
2018-04-22T12:40:27.144Z,31.30
2018-04-22T12:42:54.625Z,30.70
2018-04-22T12:45:22.880Z,32.80
2018-04-22T12:47:50.438Z,32.80
2018-04-22T12:50:18.724Z,32.10
2018-04-22T12:52:46.993Z,34.70
2018-04-22T12:55:14.961Z,34.70
2018-04-22T12:57:42.428Z,33.50
2018-04-22T13:00:10.661Z,33.80
2018-04-22T13:02:38.305Z,33.80
2018-04-22T13:05:05.771Z,32.60
2018-04-22T13:07:33.268Z,32.70
2018-04-22T13:10:00.931Z,34.20
2018-04-22T13:12:28.703Z,34.80
2018-04-22T13:14:57.179Z,39.30
2018-04-22T13:17:25.728Z,39.70
2018-04-22T13:19:53.416Z,39.60
2018-04-22T13:22:21.276Z,38.70
2018-04-22T13:24:49.047Z,38.80
2018-04-22T13:27:16.512Z,38.40
2018-04-22T13:29:44.793Z,38.80
2018-04-22T13:32:13.360Z,40.20
2018-04-22T13:34:41.024Z,40.20
2018-04-22T13:37:08.921Z,38.90
2018-04-22T13:39:37.272Z,42.00
2018-04-22T13:42:04.825Z,42.00
2018-04-22T13:44:32.592Z,43.40
2018-04-22T13:47:00.069Z,42.60
2018-04-22T13:49:28.319Z,42.50
2018-04-22T13:51:55.993Z,42.40
2018-04-22T13:54:24.405Z,44.90
2018-04-22T13:56:52.436Z,44.30
2018-04-22T13:59:20.197Z,41.40
2018-04-22T14:01:49.161Z,41.60
2018-04-22T14:04:16.632Z,41.60
2018-04-22T14:06:44.321Z,36.80
2018-04-22T14:09:12.557Z,40.10
2018-04-22T14:11:40.021Z,40.10
2018-04-22T14:14:07.808Z,41.20
2018-04-22T14:16:35.368Z,41.50
2018-04-22T14:19:03.030Z,42.40
2018-04-22T14:21:30.901Z,43.20
2018-04-22T14:23:58.664Z,42.00
2018-04-22T14:26:26.435Z,40.90
2018-04-22T14:28:54.899Z,41.70
2018-04-22T14:31:22.359Z,41.60
2018-04-22T14:33:49.828Z,42.30
2018-04-22T14:36:17.516Z,41.80
2018-04-22T14:38:45.255Z,40.70
2018-04-22T14:41:13.056Z,41.30
2018-04-22T14:43:47.334Z,41.00
2018-04-22T14:46:15.252Z,37.60
2018-04-22T14:48:54.748Z,39.30
2018-04-22T14:51:23.396Z,41.00
2018-04-22T14:53:50.896Z,40.90
2018-04-22T14:56:19.168Z,43.20
2018-04-22T14:58:47.953Z,42.60
2018-04-22T15:01:15.416Z,42.50
2018-04-22T15:03:43.681Z,41.00
2018-04-22T15:06:11.543Z,41.00
2018-04-22T15:08:39.093Z,41.00
2018-04-22T15:11:06.668Z,41.70
2018-04-22T15:13:34.537Z,41.90
2018-04-22T15:16:02.118Z,42.60
2018-04-22T15:18:30.576Z,41.10
2018-04-22T15:20:58.748Z,41.10
2018-04-22T15:23:26.417Z,41.60
2018-04-22T15:25:54.652Z,41.20
2018-04-22T15:28:22.322Z,41.20
2018-04-22T15:30:49.828Z,41.30
2018-04-22T15:33:18.188Z,42.70
2018-04-22T15:35:45.952Z,42.50
2018-04-22T15:38:13.513Z,41.50
2018-04-22T15:40:41.047Z,41.90
2018-04-22T15:43:08.513Z,41.30
2018-04-22T15:45:35.976Z,42.40
2018-04-22T15:48:03.752Z,41.90
2018-04-22T15:50:31.323Z,42.90
2018-04-22T15:52:59.584Z,41.00
2018-04-22T15:55:27.553Z,41.00
2018-04-22T15:57:55.208Z,42.70
2018-04-22T16:00:22.772Z,42.40
2018-04-22T16:02:50.433Z,43.90
2018-04-22T16:05:18.099Z,43.00
2018-04-22T16:07:45.568Z,42.70
2018-04-22T16:10:13.924Z,42.60
2018-04-22T16:12:43.640Z,43.90
2018-04-22T16:15:11.100Z,43.90
2018-04-22T16:17:39.879Z,43.40
2018-04-22T16:20:07.548Z,43.90
2018-04-22T16:22:36.511Z,45.10
2018-04-22T16:25:03.977Z,44.90
2018-04-22T16:27:31.456Z,45.60
2018-04-22T16:29:58.996Z,46.90
2018-04-22T16:32:26.572Z,46.70
2018-04-22T16:34:54.961Z,47.70
2018-04-22T16:37:23.644Z,48.40
2018-04-22T16:39:51.296Z,48.80
2018-04-22T16:42:18.856Z,47.90
2018-04-22T16:44:46.828Z,48.20
2018-04-22T16:47:14.303Z,49.20
2018-04-22T16:49:42.536Z,49.50
2018-04-22T16:52:10.061Z,50.10
2018-04-22T16:54:37.528Z,49.70
2018-04-22T16:57:05.240Z,50.30
2018-04-22T16:59:32.709Z,49.90
2018-04-22T17:02:00.981Z,50.70
2018-04-22T17:04:28.733Z,50.60
2018-04-22T17:06:56.192Z,51.30
2018-04-22T17:09:23.657Z,53.00
2018-04-22T17:11:52.134Z,54.30
2018-04-22T17:14:20.444Z,52.40
2018-04-22T17:16:47.972Z,51.60
2018-04-22T17:19:15.836Z,52.30
2018-04-22T17:21:43.396Z,51.80
2018-04-22T17:24:11.227Z,52.40
2018-04-22T17:26:39.412Z,53.10
2018-04-22T17:29:06.889Z,53.00
2018-04-22T17:31:34.657Z,52.90
2018-04-22T17:34:02.234Z,52.20
2018-04-22T17:36:30.459Z,52.50
2018-04-22T17:38:58.252Z,52.40
2018-04-22T17:41:25.817Z,51.90
2018-04-22T17:43:53.296Z,53.00
2018-04-22T17:46:21.888Z,54.90
2018-04-22T17:48:49.352Z,54.80
2018-04-22T17:51:16.829Z,55.30
2018-04-22T17:53:44.390Z,57.80
2018-04-22T17:56:11.997Z,58.00
2018-04-22T17:58:40.277Z,63.30
2018-04-22T18:01:07.829Z,62.30
2018-04-22T18:03:35.693Z,63.80
2018-04-22T18:06:03.252Z,65.30
2018-04-22T18:08:30.721Z,67.00
2018-04-22T18:10:59.125Z,70.50
2018-04-22T18:13:26.654Z,70.40
2018-04-22T18:15:54.972Z,69.80
2018-04-22T18:18:22.884Z,70.30
2018-04-22T18:20:50.881Z,70.90
2018-04-22T18:23:19.848Z,69.10
2018-04-22T18:25:47.613Z,68.80
2018-04-22T18:28:15.178Z,65.90
2018-04-22T18:30:42.654Z,67.00
2018-04-22T18:33:11.065Z,70.70
2018-04-22T18:35:38.620Z,70.60
2018-04-22T18:38:06.179Z,66.80
2018-04-22T18:40:34.004Z,65.70
2018-04-22T18:43:01.677Z,66.50
2018-04-22T18:45:29.937Z,68.60
2018-04-22T18:47:58.528Z,68.20
2018-04-22T18:50:26.002Z,68.20
2018-04-22T18:52:54.252Z,70.30
2018-04-22T18:55:21.843Z,70.20
2018-04-22T18:57:49.339Z,73.00
2018-04-22T19:00:16.836Z,71.50
2018-04-22T19:02:44.901Z,73.00
2018-04-22T19:05:12.564Z,74.70
2018-04-22T19:07:40.176Z,74.20
2018-04-22T19:10:07.886Z,73.10
2018-04-22T19:12:35.609Z,75.80
2018-04-22T19:15:03.117Z,74.30
2018-04-22T19:17:30.871Z,76.30
2018-04-22T19:19:59.768Z,76.90
2018-04-22T19:22:27.330Z,77.00
2018-04-22T19:24:55.732Z,77.30
2018-04-22T19:27:24.036Z,79.60
2018-04-22T19:29:51.507Z,79.40
2018-04-22T19:32:19.057Z,81.80
2018-04-22T19:34:46.815Z,82.30
2018-04-22T19:37:15.252Z,87.00
2018-04-22T19:39:42.867Z,86.90
2018-04-22T19:42:10.424Z,86.10
2018-04-22T19:44:38.344Z,86.10
2018-04-22T19:47:06.110Z,88.00
2018-04-22T19:49:33.680Z,89.30
2018-04-22T19:52:02.152Z,90.60
2018-04-22T19:54:29.724Z,90.50
2018-04-22T19:56:57.376Z,90.00
2018-04-22T19:59:24.941Z,90.30
2018-04-22T20:01:53.011Z,90.50
2018-04-22T20:04:20.573Z,90.00
2018-04-22T20:06:48.436Z,90.80
2018-04-22T20:09:16.199Z,90.40
2018-04-22T20:11:43.711Z,90.60
2018-04-22T20:14:11.229Z,90.50
2018-04-22T20:16:38.992Z,91.30
2018-04-22T20:19:07.095Z,91.30
2018-04-22T20:21:34.632Z,91.80
2018-04-22T20:24:02.948Z,92.60
2018-04-22T20:26:30.569Z,92.60
2018-04-22T20:28:58.179Z,92.60
2018-04-22T20:31:25.884Z,92.60
2018-04-22T20:33:53.483Z,92.90
2018-04-22T20:36:21.241Z,93.00
2018-04-22T20:38:49.617Z,92.80
2018-04-22T20:41:17.985Z,93.00
2018-04-22T20:43:46.564Z,92.90
2018-04-22T20:46:14.323Z,92.90
2018-04-22T20:48:43.425Z,92.80
2018-04-22T20:51:11.292Z,92.80
2018-04-22T20:53:38.855Z,92.90
2018-04-22T20:56:06.417Z,92.50
2018-04-22T20:58:34.177Z,93.00
2018-04-22T21:01:01.646Z,93.10
2018-04-22T21:03:30.295Z,93.10
2018-04-22T21:05:58.708Z,93.30
2018-04-22T21:08:26.276Z,93.20
2018-04-22T21:10:54.038Z,93.30
2018-04-22T21:13:22.620Z,93.80
2018-04-22T21:15:51.415Z,94.20
2018-04-22T21:18:19.072Z,94.20
2018-04-22T21:20:46.647Z,94.00
2018-04-22T21:23:14.537Z,95.00
2018-04-22T21:25:42.793Z,94.90
2018-04-22T21:28:11.059Z,95.40
2018-04-22T21:30:40.360Z,94.80
2018-04-22T21:33:07.924Z,94.80
2018-04-22T21:35:35.492Z,95.30
2018-04-22T21:38:04.080Z,96.00
2018-04-22T21:40:33.013Z,96.20
2018-04-22T21:43:00.725Z,96.20
2018-04-22T21:45:28.495Z,96.10
2018-04-22T21:47:56.068Z,96.00
2018-04-22T21:50:24.741Z,95.90
2018-04-22T21:52:53.121Z,95.90
2018-04-22T21:55:20.880Z,95.90
2018-04-22T21:57:50.186Z,95.90
2018-04-22T22:00:17.960Z,95.90
2018-04-22T22:02:46.229Z,96.10
2018-04-22T22:05:13.988Z,96.10
2018-04-22T22:07:41.658Z,96.30
2018-04-22T22:10:10.028Z,96.90
2018-04-22T22:12:37.492Z,96.90
2018-04-22T22:15:05.128Z,97.20
2018-04-22T22:17:32.717Z,97.50
2018-04-22T22:20:00.340Z,97.40
2018-04-22T22:22:27.808Z,97.70
2018-04-22T22:24:55.377Z,97.80
2018-04-22T22:27:23.160Z,97.70
2018-04-22T22:29:50.820Z,97.50
2018-04-22T22:32:18.379Z,97.10
2018-04-22T22:34:46.143Z,97.30
2018-04-22T22:37:14.499Z,97.30
2018-04-22T22:39:42.424Z,97.30
2018-04-22T22:42:10.056Z,97.90
2018-04-22T22:44:37.820Z,98.30
2018-04-22T22:47:05.480Z,98.20
2018-04-22T22:49:33.148Z,98.30
2018-04-22T22:52:00.889Z,98.00
2018-04-22T22:54:28.577Z,98.30
2018-04-22T22:56:56.647Z,98.50
2018-04-22T22:59:24.304Z,98.60
2018-04-22T23:01:51.969Z,99.00
2018-04-22T23:04:19.741Z,99.30
2018-04-22T23:06:48.212Z,99.40
2018-04-22T23:09:15.757Z,99.20
2018-04-22T23:11:43.848Z,99.40
2018-04-22T23:14:11.316Z,99.60
2018-04-22T23:16:39.890Z,99.90
2018-04-22T23:19:07.656Z,99.90
2018-04-22T23:21:35.420Z,99.90
2018-04-22T23:24:02.985Z,99.90
2018-04-22T23:26:30.753Z,99.90
2018-04-22T23:28:59.029Z,99.90
2018-04-22T23:31:27.344Z,99.90
2018-04-22T23:33:55.272Z,99.90
2018-04-22T23:36:23.652Z,99.90
2018-04-22T23:38:51.629Z,99.90
2018-04-22T23:41:20.027Z,99.90
2018-04-22T23:43:49.019Z,99.90
2018-04-22T23:46:17.241Z,99.90
2018-04-22T23:48:45.140Z,99.90
2018-04-22T23:51:12.717Z,99.90
2018-04-22T23:53:41.184Z,99.90
2018-04-22T23:56:08.744Z,99.90
2018-04-22T23:58:36.507Z,99.90
